Time;durP1;ratioP1;P1;durP2;ratioP2;P2;SDS_P1;SDS_P2;PMS_P1;PMS_P2;Temp;Humidity;BMP_temperature;BMP_pressure;BME280_temperature;BME280_humidity;BME280_pressure;Samples;Min_cycle;Max_cycle;Signal;HPM_P1;HPM_P2
2023/09/13 00:01:43;;;;;;;2.95;0.80;;;;;;;;;;5025450;28;20042;-60
2023/09/13 00:04:10;;;;;;;0.95;0.52;;;;;;;;;;5023692;28;20045;-61
2023/09/13 00:06:36;;;;;;;1.52;0.60;;;;;;;;;;5024918;28;20037;-60
2023/09/13 00:09:03;;;;;;;0.50;0.50;;;;;;;;;;5025651;28;20048;-60
2023/09/13 00:11:29;;;;;;;0.80;0.57;;;;;;;;;;5023632;28;20068;-61
2023/09/13 00:13:55;;;;;;;2.28;0.82;;;;;;;;;;5025015;28;20045;-60
2023/09/13 00:16:21;;;;;;;1.23;0.80;;;;;;;;;;5025769;28;20120;-60
2023/09/13 00:18:47;;;;;;;2.25;0.85;;;;;;;;;;5025636;28;20387;-61
2023/09/13 00:21:13;;;;;;;2.53;0.85;;;;;;;;;;5025266;28;20079;-60
2023/09/13 00:23:39;;;;;;;2.78;0.90;;;;;;;;;;5025784;28;20087;-60
2023/09/13 00:26:06;;;;;;;0.70;0.50;;;;;;;;;;5023082;28;20041;-60
2023/09/13 00:28:32;;;;;;;1.65;0.80;;;;;;;;;;5025181;28;20037;-60
2023/09/13 00:30:58;;;;;;;1.35;0.73;;;;;;;;;;5025960;28;20045;-60
2023/09/13 00:33:24;;;;;;;0.80;0.60;;;;;;;;;;5025440;28;20077;-60
2023/09/13 00:35:55;;;;;;;1.10;0.63;;;;;;;;;;5025324;28;20057;-61
2023/09/13 00:38:22;;;;;;;0.88;0.63;;;;;;;;;;5026065;28;20056;-60
2023/09/13 00:40:48;;;;;;;1.60;0.57;;;;;;;;;;5025518;28;20045;-60
2023/09/13 00:43:14;;;;;;;0.90;0.40;;;;;;;;;;5024205;28;20041;-60
2023/09/13 00:45:40;;;;;;;0.95;0.30;;;;;;;;;;5025615;28;20402;-60
2023/09/13 00:48:07;;;;;;;3.03;0.57;;;;;;;;;;5024604;28;20757;-61
2023/09/13 00:50:33;;;;;;;0.88;0.30;;;;;;;;;;5025642;28;20049;-60
2023/09/13 00:52:59;;;;;;;0.50;0.40;;;;;;;;;;5024663;28;20099;-61
2023/09/13 00:55:26;;;;;;;0.47;0.40;;;;;;;;;;5024560;28;20072;-60
2023/09/13 00:57:52;;;;;;;1.38;0.50;;;;;;;;;;5025575;28;20034;-60
2023/09/13 01:00:19;;;;;;;0.98;0.40;;;;;;;;;;5025796;28;20084;-60
2023/09/13 01:02:45;;;;;;;1.15;0.40;;;;;;;;;;5024784;28;20033;-60
2023/09/13 01:05:13;;;;;;;0.80;0.50;;;;;;;;;;5026087;28;20033;-60
2023/09/13 01:07:42;;;;;;;0.57;0.30;;;;;;;;;;5029203;28;20133;-60
2023/09/13 01:10:08;;;;;;;0.80;0.35;;;;;;;;;;5028423;28;20379;-60
2023/09/13 01:12:35;;;;;;;1.20;0.50;;;;;;;;;;5027863;28;20053;-60
2023/09/13 01:15:01;;;;;;;3.47;0.60;;;;;;;;;;5028976;28;20033;-60
2023/09/13 01:17:46;;;;;;;1.85;0.55;;;;;;;;;;5028438;28;20184;-61
2023/09/13 01:20:22;;;;;;;1.02;0.35;;;;;;;;;;5028817;28;20042;-60
2023/09/13 01:22:48;;;;;;;0.90;0.45;;;;;;;;;;5028177;28;20570;-60
2023/09/13 01:25:14;;;;;;;0.28;0.28;;;;;;;;;;5025363;28;20053;-60
2023/09/13 01:27:58;;;;;;;0.57;0.40;;;;;;;;;;5026638;28;20409;-60
2023/09/13 01:30:26;;;;;;;0.65;0.40;;;;;;;;;;5026412;28;20128;-60
2023/09/13 01:32:52;;;;;;;0.38;0.20;;;;;;;;;;5028023;28;20045;-60
2023/09/13 01:35:18;;;;;;;0.55;0.35;;;;;;;;;;5025888;28;20055;-60
2023/09/13 01:37:44;;;;;;;0.40;0.30;;;;;;;;;;5026344;28;20073;-60
2023/09/13 01:40:10;;;;;;;0.30;0.20;;;;;;;;;;5026666;28;20077;-60
2023/09/13 01:42:38;;;;;;;0.77;0.32;;;;;;;;;;5027190;28;20510;-61
2023/09/13 01:45:07;;;;;;;0.30;0.20;;;;;;;;;;5026176;28;20406;-61
2023/09/13 01:47:34;;;;;;;0.40;0.30;;;;;;;;;;5026875;28;20111;-60
2023/09/13 01:50:00;;;;;;;1.20;0.60;;;;;;;;;;5027391;28;20041;-60
2023/09/13 01:52:26;;;;;;;0.90;0.57;;;;;;;;;;5026288;28;20033;-60
2023/09/13 01:54:52;;;;;;;1.05;0.50;;;;;;;;;;5027460;28;20038;-60
2023/09/13 01:57:18;;;;;;;0.80;0.47;;;;;;;;;;5026926;28;20052;-60
2023/09/13 01:59:44;;;;;;;1.10;0.32;;;;;;;;;;5026264;28;20275;-60
2023/09/13 02:02:11;;;;;;;0.40;0.30;;;;;;;;;;5026334;28;20050;-60
2023/09/13 02:04:37;;;;;;;0.80;0.40;;;;;;;;;;5026913;28;20037;-60
2023/09/13 02:07:03;;;;;;;2.05;0.70;;;;;;;;;;5026023;28;20030;-60
2023/09/13 02:09:29;;;;;;;1.23;0.40;;;;;;;;;;5026347;28;20044;-60
2023/09/13 02:11:55;;;;;;;0.50;0.30;;;;;;;;;;5027378;28;20044;-61
2023/09/13 02:14:21;;;;;;;0.30;0.30;;;;;;;;;;5023878;28;20054;-60
2023/09/13 02:16:47;;;;;;;0.60;0.50;;;;;;;;;;5026436;28;20048;-60
2023/09/13 02:19:13;;;;;;;0.55;0.40;;;;;;;;;;5025519;28;20690;-61
2023/09/13 02:21:40;;;;;;;1.15;0.77;;;;;;;;;;5026833;28;20489;-61
2023/09/13 02:24:06;;;;;;;2.25;0.73;;;;;;;;;;5027116;28;20557;-60
2023/09/13 02:26:32;;;;;;;0.68;0.47;;;;;;;;;;5026098;28;20029;-60
2023/09/13 02:28:58;;;;;;;1.08;0.80;;;;;;;;;;5026809;28;20106;-60
2023/09/13 02:31:29;;;;;;;1.42;0.80;;;;;;;;;;5025372;28;20042;-60
2023/09/13 02:33:55;;;;;;;0.43;0.43;;;;;;;;;;5026361;28;20551;-60
2023/09/13 02:36:22;;;;;;;1.05;0.60;;;;;;;;;;5026830;28;20073;-60
2023/09/13 02:38:49;;;;;;;0.60;0.50;;;;;;;;;;5026635;28;20120;-60
2023/09/13 02:41:16;;;;;;;0.32;0.32;;;;;;;;;;5024962;28;20125;-60
2023/09/13 02:43:42;;;;;;;0.55;0.25;;;;;;;;;;5026220;28;20071;-60
2023/09/13 02:46:08;;;;;;;2.38;0.73;;;;;;;;;;5024692;28;20547;-60
2023/09/13 02:48:34;;;;;;;0.70;0.50;;;;;;;;;;5025609;28;20057;-60
2023/09/13 02:51:00;;;;;;;0.43;0.43;;;;;;;;;;5026519;28;20037;-60
2023/09/13 02:53:26;;;;;;;0.50;0.40;;;;;;;;;;5026543;28;20044;-60
2023/09/13 02:55:52;;;;;;;1.38;0.50;;;;;;;;;;5026220;28;20050;-60
2023/09/13 02:58:18;;;;;;;0.70;0.50;;;;;;;;;;5024285;28;20041;-60
2023/09/13 03:00:44;;;;;;;0.50;0.30;;;;;;;;;;5026292;28;20887;-60
2023/09/13 03:03:10;;;;;;;1.90;0.52;;;;;;;;;;5025587;28;20053;-60
2023/09/13 03:05:36;;;;;;;0.95;0.40;;;;;;;;;;5025770;28;20088;-60
2023/09/13 03:08:03;;;;;;;1.30;0.60;;;;;;;;;;5026290;28;20040;-60
2023/09/13 03:10:29;;;;;;;0.93;0.60;;;;;;;;;;5025285;28;20413;-60
2023/09/13 03:12:55;;;;;;;1.13;0.60;;;;;;;;;;5026433;28;20090;-60
2023/09/13 03:15:21;;;;;;;2.17;0.35;;;;;;;;;;5024816;28;20056;-60
2023/09/13 03:17:47;;;;;;;0.68;0.32;;;;;;;;;;5025254;28;20041;-60
2023/09/13 03:20:13;;;;;;;0.75;0.40;;;;;;;;;;5025310;28;20084;-60
2023/09/13 03:22:39;;;;;;;1.33;0.60;;;;;;;;;;5025411;28;20136;-60
2023/09/13 03:25:05;;;;;;;1.30;0.40;;;;;;;;;;5026017;28;20391;-60
2023/09/13 03:27:34;;;;;;;0.43;0.20;;;;;;;;;;5025138;28;20045;-60
2023/09/13 03:30:00;;;;;;;1.08;0.47;;;;;;;;;;5024811;28;20702;-60
2023/09/13 03:32:26;;;;;;;1.75;0.50;;;;;;;;;;5025608;28;20605;-60
2023/09/13 03:34:52;;;;;;;0.50;0.47;;;;;;;;;;5026370;28;20064;-61
2023/09/13 03:37:18;;;;;;;3.15;0.60;;;;;;;;;;5025331;28;20102;-60
2023/09/13 03:39:44;;;;;;;3.75;0.65;;;;;;;;;;5025828;28;20448;-60
2023/09/13 03:42:10;;;;;;;0.50;0.40;;;;;;;;;;5025581;28;20095;-60
2023/09/13 03:44:36;;;;;;;0.77;0.52;;;;;;;;;;5023232;28;20038;-60
2023/09/13 03:47:02;;;;;;;0.80;0.60;;;;;;;;;;5024070;28;20038;-60
2023/09/13 03:49:28;;;;;;;1.13;0.60;;;;;;;;;;5024765;28;20114;-60
2023/09/13 03:51:54;;;;;;;1.73;0.82;;;;;;;;;;5025344;28;20614;-61
2023/09/13 03:54:20;;;;;;;2.20;0.88;;;;;;;;;;5025751;28;20045;-60
2023/09/13 03:56:46;;;;;;;2.30;0.73;;;;;;;;;;5024064;28;20124;-60
2023/09/13 03:59:12;;;;;;;0.75;0.52;;;;;;;;;;5024372;28;20137;-60
2023/09/13 04:01:38;;;;;;;2.40;0.73;;;;;;;;;;5025404;28;20495;-60
2023/09/13 04:04:05;;;;;;;1.23;0.68;;;;;;;;;;5025431;28;20063;-60
2023/09/13 04:06:31;;;;;;;0.70;0.50;;;;;;;;;;5024669;28;20046;-60
2023/09/13 04:08:57;;;;;;;3.58;0.90;;;;;;;;;;5024535;28;20191;-60
2023/09/13 04:11:23;;;;;;;0.80;0.50;;;;;;;;;;5025503;28;20576;-60
2023/09/13 04:13:49;;;;;;;1.05;0.65;;;;;;;;;;5024818;28;20125;-60
2023/09/13 04:16:16;;;;;;;2.75;1.10;;;;;;;;;;5024799;28;20080;-60
2023/09/13 04:18:42;;;;;;;3.63;0.70;;;;;;;;;;5024914;28;20038;-60
2023/09/13 04:21:08;;;;;;;1.65;0.70;;;;;;;;;;5021336;28;20037;-60
2023/09/13 04:23:34;;;;;;;0.80;0.40;;;;;;;;;;5024616;28;20098;-60
2023/09/13 04:26:00;;;;;;;1.02;0.75;;;;;;;;;;5024034;28;20112;-60
2023/09/13 04:28:26;;;;;;;1.60;0.63;;;;;;;;;;5024778;28;20532;-60
2023/09/13 04:30:52;;;;;;;2.88;1.00;;;;;;;;;;5025413;28;20029;-60
2023/09/13 04:33:38;;;;;;;2.38;0.77;;;;;;;;;;5023876;28;20564;-60
2023/09/13 04:36:04;;;;;;;1.40;1.00;;;;;;;;;;5023728;28;20041;-60
2023/09/13 04:38:30;;;;;;;3.47;1.10;;;;;;;;;;5024951;28;20128;-60
2023/09/13 04:40:56;;;;;;;1.80;1.02;;;;;;;;;;5024206;28;20112;-60
2023/09/13 04:43:23;;;;;;;1.35;0.82;;;;;;;;;;5024903;28;20628;-60
2023/09/13 04:45:49;;;;;;;2.85;1.17;;;;;;;;;;5024462;28;20053;-60
2023/09/13 04:48:15;;;;;;;2.08;1.02;;;;;;;;;;5023617;28;20195;-61
2023/09/13 04:50:41;;;;;;;2.33;1.35;;;;;;;;;;5024782;28;20120;-60
2023/09/13 04:53:07;;;;;;;3.70;1.38;;;;;;;;;;5024032;28;20041;-60
2023/09/13 04:55:33;;;;;;;5.18;1.52;;;;;;;;;;5024258;28;20572;-61
2023/09/13 04:57:59;;;;;;;4.07;1.65;;;;;;;;;;5024692;28;20037;-61
2023/09/13 05:00:26;;;;;;;3.50;1.60;;;;;;;;;;5024935;28;20037;-61
2023/09/13 05:02:52;;;;;;;3.40;1.20;;;;;;;;;;5023298;28;20410;-60
2023/09/13 05:05:18;;;;;;;2.47;1.05;;;;;;;;;;5024327;28;20057;-60
2023/09/13 05:07:44;;;;;;;3.13;1.33;;;;;;;;;;5022373;28;20052;-60
2023/09/13 05:10:10;;;;;;;3.45;1.13;;;;;;;;;;5023258;28;20072;-60
2023/09/13 05:12:36;;;;;;;2.63;1.15;;;;;;;;;;5023972;28;20087;-61
2023/09/13 05:15:02;;;;;;;3.13;1.15;;;;;;;;;;5024380;28;20127;-60
2023/09/13 05:17:29;;;;;;;2.13;1.00;;;;;;;;;;5024277;28;20085;-60
2023/09/13 05:19:55;;;;;;;4.13;1.02;;;;;;;;;;5024784;28;20045;-60
2023/09/13 05:22:21;;;;;;;1.08;0.63;;;;;;;;;;5024007;28;20091;-60
2023/09/13 05:24:47;;;;;;;1.88;1.10;;;;;;;;;;5024290;28;20398;-60
2023/09/13 05:27:13;;;;;;;0.63;0.60;;;;;;;;;;5024336;28;20044;-60
2023/09/13 05:29:39;;;;;;;1.73;0.80;;;;;;;;;;5023928;28;20611;-60
2023/09/13 05:32:05;;;;;;;0.70;0.50;;;;;;;;;;5023348;28;20127;-60
2023/09/13 05:34:31;;;;;;;1.63;1.00;;;;;;;;;;5024107;28;20168;-60
2023/09/13 05:36:57;;;;;;;2.13;0.88;;;;;;;;;;5023117;28;20034;-60
2023/09/13 05:39:24;;;;;;;1.00;0.70;;;;;;;;;;5024513;28;20049;-60
2023/09/13 05:41:53;;;;;;;1.75;1.02;;;;;;;;;;5023079;28;20061;-60
2023/09/13 05:44:24;;;;;;;1.58;0.77;;;;;;;;;;5023379;28;20045;-61
2023/09/13 05:46:52;;;;;;;1.52;0.98;;;;;;;;;;5022462;28;20126;-60
2023/09/13 05:49:18;;;;;;;1.38;1.15;;;;;;;;;;5022743;28;20521;-60
2023/09/13 05:51:45;;;;;;;1.35;0.80;;;;;;;;;;5025003;28;20049;-60
2023/09/13 05:54:11;;;;;;;2.03;0.90;;;;;;;;;;5027747;28;20046;-60
2023/09/13 05:56:37;;;;;;;3.58;1.13;;;;;;;;;;5027179;28;20049;-60
2023/09/13 05:59:03;;;;;;;2.42;1.33;;;;;;;;;;5029344;28;20049;-60
2023/09/13 06:01:30;;;;;;;3.03;1.52;;;;;;;;;;5027365;28;20037;-60
2023/09/13 06:03:56;;;;;;;2.95;1.40;;;;;;;;;;5027824;28;20045;-60
2023/09/13 06:06:22;;;;;;;2.30;1.55;;;;;;;;;;5027072;28;20084;-60
2023/09/13 06:08:48;;;;;;;3.40;1.40;;;;;;;;;;5025683;28;20045;-60
2023/09/13 06:11:16;;;;;;;1.38;1.15;;;;;;;;;;5026277;28;20452;-61
2023/09/13 06:13:42;;;;;;;5.53;2.25;;;;;;;;;;5025956;28;20041;-60
2023/09/13 06:16:08;;;;;;;2.58;1.40;;;;;;;;;;5027991;28;20041;-60
2023/09/13 06:18:34;;;;;;;1.20;1.10;;;;;;;;;;5025911;28;20064;-60
2023/09/13 06:21:00;;;;;;;2.20;1.20;;;;;;;;;;5027366;28;20389;-60
2023/09/13 06:23:33;;;;;;;6.55;1.58;;;;;;;;;;5021933;28;20124;-60
2023/09/13 06:25:59;;;;;;;5.13;1.75;;;;;;;;;;5021769;28;20441;-60
2023/09/13 06:28:25;;;;;;;5.72;2.17;;;;;;;;;;5028313;28;20045;-60
2023/09/13 06:30:51;;;;;;;3.05;1.80;;;;;;;;;;5027712;28;20087;-60
2023/09/13 06:33:17;;;;;;;1.85;1.25;;;;;;;;;;5025725;28;20442;-60
2023/09/13 06:35:43;;;;;;;7.13;2.00;;;;;;;;;;5015971;28;20037;-60
2023/09/13 06:38:10;;;;;;;4.20;1.90;;;;;;;;;;5026547;28;20090;-60
2023/09/13 06:40:39;;;;;;;6.45;1.88;;;;;;;;;;5026247;28;20043;-60
2023/09/13 06:43:05;;;;;;;3.53;1.80;;;;;;;;;;5026679;28;20048;-60
2023/09/13 06:45:31;;;;;;;3.42;1.70;;;;;;;;;;5026705;28;20037;-60
2023/09/13 06:47:57;;;;;;;3.35;1.83;;;;;;;;;;5026144;28;20050;-59
2023/09/13 06:50:23;;;;;;;3.30;1.60;;;;;;;;;;5026968;28;20090;-61
2023/09/13 06:52:49;;;;;;;3.55;1.52;;;;;;;;;;5025359;28;20041;-60
2023/09/13 06:55:16;;;;;;;2.28;1.23;;;;;;;;;;5025575;28;20052;-60
2023/09/13 06:57:42;;;;;;;3.97;1.70;;;;;;;;;;5026144;28;20033;-60
2023/09/13 07:00:08;;;;;;;2.63;1.25;;;;;;;;;;5026175;28;20041;-60
2023/09/13 07:02:34;;;;;;;1.60;1.13;;;;;;;;;;5016089;28;20043;-60
2023/09/13 07:05:00;;;;;;;1.88;0.95;;;;;;;;;;5025878;28;20040;-60
2023/09/13 07:07:26;;;;;;;2.45;1.00;;;;;;;;;;5026291;28;20033;-60
2023/09/13 07:09:52;;;;;;;1.58;1.13;;;;;;;;;;5024621;28;20449;-60
2023/09/13 07:12:19;;;;;;;1.73;1.30;;;;;;;;;;5026172;28;20617;-60
2023/09/13 07:14:45;;;;;;;1.38;0.98;;;;;;;;;;5025695;28;20041;-59
2023/09/13 07:17:11;;;;;;;2.70;1.08;;;;;;;;;;5026039;28;20120;-60
2023/09/13 07:19:37;;;;;;;1.10;0.90;;;;;;;;;;5025882;28;20037;-60
2023/09/13 07:22:03;;;;;;;3.20;1.67;;;;;;;;;;5025900;28;20037;-62
2023/09/13 07:24:29;;;;;;;3.35;1.30;;;;;;;;;;5025228;28;20053;-61
2023/09/13 07:26:55;;;;;;;2.15;1.10;;;;;;;;;;5026216;28;20505;-61
2023/09/13 07:29:21;;;;;;;3.65;1.27;;;;;;;;;;5019768;28;20037;-64
2023/09/13 07:31:47;;;;;;;2.45;1.10;;;;;;;;;;5026108;28;20579;-63
2023/09/13 07:34:15;;;;;;;5.53;1.50;;;;;;;;;;5026336;28;20049;-60
2023/09/13 07:36:41;;;;;;;3.85;1.30;;;;;;;;;;5022626;28;20046;-60
2023/09/13 07:39:09;;;;;;;1.98;0.73;;;;;;;;;;5026198;28;20042;-61
2023/09/13 07:41:35;;;;;;;2.28;1.17;;;;;;;;;;5026415;28;20776;-61
2023/09/13 07:44:01;;;;;;;3.15;1.48;;;;;;;;;;5025699;28;20029;-60
2023/09/13 07:46:27;;;;;;;3.08;1.48;;;;;;;;;;5026830;28;20136;-60
2023/09/13 07:48:53;;;;;;;2.85;0.98;;;;;;;;;;5019931;28;20054;-61
2023/09/13 07:51:19;;;;;;;1.52;1.00;;;;;;;;;;5009137;28;20103;-61
2023/09/13 07:53:45;;;;;;;2.58;1.20;;;;;;;;;;5022638;28;20041;-61
2023/09/13 07:56:11;;;;;;;1.50;1.08;;;;;;;;;;5014536;28;20515;-60
2023/09/13 07:58:37;;;;;;;3.72;1.48;;;;;;;;;;5013190;28;20042;-60
2023/09/13 08:01:03;;;;;;;3.35;1.25;;;;;;;;;;5015913;28;20037;-60
2023/09/13 08:03:29;;;;;;;2.88;1.40;;;;;;;;;;5025309;28;20048;-62
2023/09/13 08:05:57;;;;;;;1.60;0.85;;;;;;;;;;5025400;28;20033;-61
2023/09/13 08:08:23;;;;;;;1.63;0.90;;;;;;;;;;5024154;28;20044;-61
2023/09/13 08:10:49;;;;;;;1.50;1.23;;;;;;;;;;5025542;28;20129;-61
2023/09/13 08:13:16;;;;;;;2.47;1.13;;;;;;;;;;5024666;28;20077;-61
2023/09/13 08:15:43;;;;;;;2.40;0.88;;;;;;;;;;5024717;28;20044;-61
2023/09/13 08:18:09;;;;;;;2.20;1.15;;;;;;;;;;5024452;28;20049;-61
2023/09/13 08:20:35;;;;;;;1.55;1.00;;;;;;;;;;5025002;28;20033;-61
2023/09/13 08:23:01;;;;;;;1.05;0.68;;;;;;;;;;5024225;28;20063;-61
2023/09/13 08:25:27;;;;;;;3.35;0.98;;;;;;;;;;5026425;28;20049;-61
2023/09/13 08:27:53;;;;;;;2.38;0.90;;;;;;;;;;5025121;28;20047;-61
2023/09/13 08:30:19;;;;;;;1.10;0.60;;;;;;;;;;5025096;28;20145;-61
2023/09/13 08:32:45;;;;;;;1.33;0.80;;;;;;;;;;5024005;28;20095;-61
2023/09/13 08:35:11;;;;;;;2.17;0.63;;;;;;;;;;5024849;28;20044;-61
2023/09/13 08:37:37;;;;;;;2.15;0.95;;;;;;;;;;5024359;28;20073;-61
2023/09/13 08:40:04;;;;;;;2.45;0.90;;;;;;;;;;5024206;28;20071;-61
2023/09/13 08:42:30;;;;;;;1.88;0.95;;;;;;;;;;5024454;28;20053;-61
2023/09/13 08:44:57;;;;;;;2.28;1.20;;;;;;;;;;5024943;28;20359;-61
2023/09/13 08:47:26;;;;;;;1.88;0.70;;;;;;;;;;5023890;28;20444;-61
2023/09/13 08:49:52;;;;;;;1.02;0.73;;;;;;;;;;5023821;28;20042;-62
2023/09/13 08:52:19;;;;;;;1.60;0.93;;;;;;;;;;5024233;28;20541;-61
2023/09/13 08:54:46;;;;;;;1.90;1.00;;;;;;;;;;5014544;28;20124;-61
2023/09/13 08:57:13;;;;;;;2.67;1.08;;;;;;;;;;5024695;28;20045;-61
2023/09/13 08:59:39;;;;;;;1.83;0.80;;;;;;;;;;5011710;28;20046;-61
2023/09/13 09:02:05;;;;;;;2.90;1.30;;;;;;;;;;5020704;28;20029;-60
2023/09/13 09:04:31;;;;;;;4.07;1.60;;;;;;;;;;5017196;28;20344;-60
2023/09/13 09:06:57;;;;;;;3.53;2.00;;;;;;;;;;5007699;28;20052;-60
2023/09/13 09:09:28;;;;;;;6.13;2.13;;;;;;;;;;5007325;28;20560;-60
2023/09/13 09:11:57;;;;;;;2.17;1.08;;;;;;;;;;5018455;28;20103;-60
2023/09/13 09:14:23;;;;;;;1.85;1.00;;;;;;;;;;5023470;28;20107;-60
2023/09/13 09:16:50;;;;;;;3.42;1.25;;;;;;;;;;5024479;28;20553;-61
2023/09/13 09:19:16;;;;;;;2.58;1.60;;;;;;;;;;5024587;28;20076;-61
2023/09/13 09:21:43;;;;;;;3.63;1.90;;;;;;;;;;5023447;28;20045;-61
2023/09/13 09:24:09;;;;;;;2.95;1.58;;;;;;;;;;5024646;28;20049;-60
2023/09/13 09:26:35;;;;;;;1.52;1.08;;;;;;;;;;5025001;28;20037;-60
2023/09/13 09:29:11;;;;;;;2.88;1.40;;;;;;;;;;5026708;28;20120;-61
2023/09/13 09:31:38;;;;;;;2.00;1.10;;;;;;;;;;5027913;28;20033;-61
2023/09/13 09:34:04;;;;;;;2.25;1.27;;;;;;;;;;5028181;28;20047;-60
2023/09/13 09:36:34;;;;;;;2.75;1.30;;;;;;;;;;5026784;28;20666;-61
2023/09/13 09:39:04;;;;;;;2.67;1.33;;;;;;;;;;5020613;28;20072;-61
2023/09/13 09:41:36;;;;;;;1.45;1.10;;;;;;;;;;5018735;28;20069;-61
2023/09/13 09:44:03;;;;;;;3.10;1.08;;;;;;;;;;5016854;28;20041;-61
2023/09/13 09:46:30;;;;;;;1.27;1.10;;;;;;;;;;5012551;28;20038;-61
2023/09/13 09:48:57;;;;;;;0.93;0.88;;;;;;;;;;5016290;28;20045;-61
2023/09/13 09:51:23;;;;;;;1.45;0.80;;;;;;;;;;5011473;28;20033;-61
2023/09/13 09:53:49;;;;;;;1.33;0.85;;;;;;;;;;5012862;28;20076;-61
2023/09/13 09:56:16;;;;;;;1.27;0.88;;;;;;;;;;5021949;28;20481;-61
2023/09/13 09:58:42;;;;;;;0.70;0.70;;;;;;;;;;5026248;28;20034;-61
2023/09/13 10:01:11;;;;;;;1.88;1.27;;;;;;;;;;5026768;28;20029;-61
2023/09/13 10:03:37;;;;;;;3.30;1.50;;;;;;;;;;5026490;28;20052;-61
2023/09/13 10:06:10;;;;;;;1.30;1.10;;;;;;;;;;5026861;28;20061;-61
2023/09/13 10:08:39;;;;;;;2.13;1.77;;;;;;;;;;5026514;28;20042;-61
2023/09/13 10:11:06;;;;;;;1.40;1.10;;;;;;;;;;5026437;28;20038;-61
2023/09/13 10:13:32;;;;;;;1.85;1.40;;;;;;;;;;5025094;28;20120;-61
2023/09/13 10:15:59;;;;;;;2.55;1.55;;;;;;;;;;5026530;28;20128;-61
2023/09/13 10:18:26;;;;;;;2.97;1.60;;;;;;;;;;5025818;28;20052;-61
2023/09/13 10:20:54;;;;;;;2.92;1.70;;;;;;;;;;5027131;28;20035;-61
2023/09/13 10:23:20;;;;;;;1.67;1.55;;;;;;;;;;5025468;28;20072;-61
2023/09/13 10:25:47;;;;;;;2.72;1.80;;;;;;;;;;5026393;28;20040;-61
2023/09/13 10:28:14;;;;;;;2.45;1.80;;;;;;;;;;5025753;28;20069;-61
2023/09/13 10:30:41;;;;;;;2.75;1.23;;;;;;;;;;5023792;28;20040;-61
2023/09/13 10:33:08;;;;;;;2.35;1.50;;;;;;;;;;5026517;28;20043;-60
2023/09/13 10:35:39;;;;;;;2.38;1.45;;;;;;;;;;5027496;28;20646;-60
2023/09/13 10:38:10;;;;;;;3.22;1.95;;;;;;;;;;5017190;28;20061;-60
2023/09/13 10:40:48;;;;;;;1.83;1.23;;;;;;;;;;5021987;28;20395;-61
2023/09/13 10:43:14;;;;;;;1.63;1.40;;;;;;;;;;5025693;28;20434;-60
2023/09/13 10:45:41;;;;;;;2.50;1.58;;;;;;;;;;5025910;28;20761;-60
2023/09/13 10:48:08;;;;;;;4.07;1.60;;;;;;;;;;5017080;28;20092;-61
2023/09/13 10:50:34;;;;;;;1.75;1.60;;;;;;;;;;5013160;28;20072;-60
2023/09/13 10:53:01;;;;;;;2.53;1.73;;;;;;;;;;5022148;28;20187;-60
2023/09/13 10:55:27;;;;;;;2.03;1.55;;;;;;;;;;5018283;28;20073;-61
2023/09/13 10:57:54;;;;;;;2.38;1.60;;;;;;;;;;5024936;28;20037;-60
2023/09/13 11:00:21;;;;;;;2.30;1.48;;;;;;;;;;5025549;28;20084;-60
2023/09/13 11:02:47;;;;;;;1.90;1.20;;;;;;;;;;5026347;28;20049;-61
2023/09/13 11:05:14;;;;;;;3.53;1.73;;;;;;;;;;5026390;28;20045;-61
2023/09/13 11:07:41;;;;;;;1.80;1.33;;;;;;;;;;5025738;28;20046;-60
2023/09/13 11:10:11;;;;;;;1.42;1.05;;;;;;;;;;5026394;28;20738;-60
2023/09/13 11:12:39;;;;;;;2.08;1.08;;;;;;;;;;5025906;28;20049;-60
2023/09/13 11:15:14;;;;;;;3.50;1.40;;;;;;;;;;5025580;28;20112;-60
2023/09/13 11:17:41;;;;;;;2.85;1.38;;;;;;;;;;5024855;28;20045;-60
2023/09/13 11:20:27;;;;;;;2.42;1.30;;;;;;;;;;5025436;28;20038;-61
2023/09/13 11:23:05;;;;;;;2.15;1.23;;;;;;;;;;5025150;28;20417;-61
2023/09/13 11:25:54;;;;;;;3.65;1.42;;;;;;;;;;5024704;28;20131;-60
2023/09/13 11:28:29;;;;;;;2.55;1.33;;;;;;;;;;5025423;28;20099;-60
2023/09/13 11:30:59;;;;;;;2.75;0.98;;;;;;;;;;5026704;28;20045;-60
2023/09/13 11:33:29;;;;;;;2.38;0.88;;;;;;;;;;5025920;28;20049;-60
2023/09/13 11:35:59;;;;;;;2.45;1.25;;;;;;;;;;5025308;28;20209;-61
2023/09/13 11:38:26;;;;;;;0.70;0.70;;;;;;;;;;5024834;28;20410;-61
2023/09/13 11:40:57;;;;;;;1.23;0.60;;;;;;;;;;5023262;28;20037;-61
2023/09/13 11:43:23;;;;;;;1.35;0.40;;;;;;;;;;5024890;28;20478;-61
2023/09/13 11:45:50;;;;;;;0.98;0.50;;;;;;;;;;5025905;28;20033;-61
2023/09/13 11:48:29;;;;;;;0.45;0.45;;;;;;;;;;5025030;28;21169;-61
2023/09/13 11:50:56;;;;;;;0.80;0.57;;;;;;;;;;5017289;28;20042;-60
2023/09/13 11:53:26;;;;;;;0.47;0.40;;;;;;;;;;5018400;28;20044;-60
2023/09/13 11:55:54;;;;;;;0.70;0.70;;;;;;;;;;5025672;28;20041;-63
2023/09/13 11:58:30;;;;;;;2.15;0.70;;;;;;;;;;5025264;28;20132;-61
2023/09/13 12:00:56;;;;;;;2.47;1.08;;;;;;;;;;5021766;28;20412;-62
2023/09/13 12:03:22;;;;;;;2.70;0.85;;;;;;;;;;5024147;28;20136;-62
2023/09/13 12:05:49;;;;;;;3.00;0.90;;;;;;;;;;5025218;28;20041;-62
2023/09/13 12:08:34;;;;;;;2.67;1.00;;;;;;;;;;5025243;28;20457;-62
2023/09/13 12:11:05;;;;;;;1.20;0.70;;;;;;;;;;5019555;28;20549;-62
2023/09/13 12:13:44;;;;;;;3.20;0.95;;;;;;;;;;5024658;28;20077;-62
2023/09/13 12:16:10;;;;;;;1.10;0.68;;;;;;;;;;5024442;28;20045;-62
2023/09/13 12:18:37;;;;;;;0.95;0.55;;;;;;;;;;5023797;28;20037;-62
2023/09/13 12:21:03;;;;;;;1.90;0.50;;;;;;;;;;5023047;28;20037;-62
2023/09/13 12:23:33;;;;;;;1.67;0.70;;;;;;;;;;5024679;28;20046;-62
2023/09/13 12:25:59;;;;;;;1.48;0.70;;;;;;;;;;5016673;28;20033;-61
2023/09/13 12:28:26;;;;;;;0.88;0.60;;;;;;;;;;5024304;28;20037;-61
2023/09/13 12:30:53;;;;;;;0.57;0.30;;;;;;;;;;5024482;28;20040;-61
2023/09/13 12:33:19;;;;;;;1.33;0.68;;;;;;;;;;5023323;28;20524;-61
2023/09/13 12:35:46;;;;;;;1.70;1.05;;;;;;;;;;5024680;28;20128;-61
2023/09/13 12:38:12;;;;;;;3.60;0.80;;;;;;;;;;5024731;28;20655;-61
2023/09/13 12:40:38;;;;;;;1.58;0.75;;;;;;;;;;5025207;28;20049;-61
2023/09/13 12:43:04;;;;;;;1.98;0.70;;;;;;;;;;5025179;28;20041;-61
2023/09/13 12:45:33;;;;;;;2.50;1.13;;;;;;;;;;5025275;28;20044;-61
2023/09/13 12:48:00;;;;;;;1.05;0.50;;;;;;;;;;5025694;28;20064;-61
2023/09/13 12:50:26;;;;;;;1.38;0.63;;;;;;;;;;5025446;28;20073;-61
2023/09/13 12:52:55;;;;;;;0.95;0.55;;;;;;;;;;5024481;28;20045;-61
2023/09/13 12:55:24;;;;;;;1.00;0.65;;;;;;;;;;5025256;28;20053;-61
2023/09/13 12:57:52;;;;;;;2.85;0.88;;;;;;;;;;5025273;28;20045;-61
2023/09/13 13:00:18;;;;;;;2.25;0.93;;;;;;;;;;5025503;28;20048;-61
2023/09/13 13:02:54;;;;;;;2.03;0.90;;;;;;;;;;5029258;28;20095;-61
2023/09/13 13:05:20;;;;;;;1.98;0.77;;;;;;;;;;5029681;28;20045;-62
2023/09/13 13:07:47;;;;;;;3.95;1.15;;;;;;;;;;5028820;28;20071;-62
2023/09/13 13:10:15;;;;;;;2.30;1.00;;;;;;;;;;5029451;28;20394;-61
2023/09/13 13:12:42;;;;;;;2.00;0.90;;;;;;;;;;5029289;28;20450;-61
2023/09/13 13:15:09;;;;;;;2.03;1.15;;;;;;;;;;5028671;28;20040;-61
2023/09/13 13:17:35;;;;;;;1.83;0.70;;;;;;;;;;5029190;28;20376;-61
2023/09/13 13:20:05;;;;;;;1.95;0.65;;;;;;;;;;5029624;28;20432;-61
2023/09/13 13:22:31;;;;;;;1.10;0.40;;;;;;;;;;5028866;28;20076;-61
2023/09/13 13:24:57;;;;;;;1.67;0.40;;;;;;;;;;5029416;28;20041;-61
2023/09/13 13:27:24;;;;;;;0.80;0.52;;;;;;;;;;5028710;28;20055;-62
2023/09/13 13:29:50;;;;;;;0.65;0.30;;;;;;;;;;5029107;28;20054;-62
2023/09/13 13:32:17;;;;;;;0.95;0.60;;;;;;;;;;5028928;28;20497;-62
2023/09/13 13:34:43;;;;;;;1.77;0.80;;;;;;;;;;5027909;28;20075;-62
2023/09/13 13:37:09;;;;;;;1.50;0.68;;;;;;;;;;5028880;28;20033;-62
2023/09/13 13:39:35;;;;;;;3.08;1.08;;;;;;;;;;5028597;28;20041;-61
2023/09/13 13:42:02;;;;;;;2.25;0.60;;;;;;;;;;5028950;28;20117;-61
2023/09/13 13:44:28;;;;;;;1.05;0.68;;;;;;;;;;5020959;28;20594;-61
2023/09/13 13:46:54;;;;;;;1.73;1.08;;;;;;;;;;5025426;28;20044;-61
2023/09/13 13:49:20;;;;;;;0.63;0.40;;;;;;;;;;5023152;28;20057;-61
2023/09/13 13:51:49;;;;;;;0.77;0.60;;;;;;;;;;5015918;28;20046;-62
2023/09/13 13:54:15;;;;;;;0.85;0.63;;;;;;;;;;5025884;28;20076;-62
2023/09/13 13:56:42;;;;;;;1.77;0.50;;;;;;;;;;5027249;28;20121;-61
2023/09/13 13:59:12;;;;;;;2.78;0.60;;;;;;;;;;5024916;28;20088;-61
2023/09/13 14:01:39;;;;;;;1.85;0.80;;;;;;;;;;5025233;28;20042;-61
2023/09/13 14:04:05;;;;;;;1.52;0.85;;;;;;;;;;5026756;28;20076;-61
2023/09/13 14:06:31;;;;;;;1.27;0.55;;;;;;;;;;5028238;28;20068;-62
2023/09/13 14:08:57;;;;;;;3.05;1.10;;;;;;;;;;5027819;28;20037;-61
2023/09/13 14:11:23;;;;;;;2.33;0.77;;;;;;;;;;5027225;28;20267;-61
2023/09/13 14:13:49;;;;;;;2.28;0.80;;;;;;;;;;5027117;28;20072;-61
2023/09/13 14:16:15;;;;;;;0.98;0.60;;;;;;;;;;5027863;28;20095;-61
2023/09/13 14:18:41;;;;;;;0.93;0.52;;;;;;;;;;5025480;28;20042;-61
2023/09/13 14:21:07;;;;;;;1.40;0.60;;;;;;;;;;5027794;28;20034;-68
2023/09/13 14:23:33;;;;;;;1.80;0.88;;;;;;;;;;5025176;28;20053;-60
2023/09/13 14:25:59;;;;;;;1.60;0.47;;;;;;;;;;5013170;28;20548;-61
2023/09/13 14:28:25;;;;;;;2.88;0.90;;;;;;;;;;5025810;28;20052;-61
2023/09/13 14:30:57;;;;;;;1.30;0.60;;;;;;;;;;5026694;28;20120;-61
2023/09/13 14:33:23;;;;;;;;;;;;;;;;;;5022247;28;20120;-61
2023/09/13 14:35:49;;;;;;;0.90;0.47;;;;;;;;;;5029188;28;20016;-61
2023/09/13 14:38:18;;;;;;;0.93;0.70;;;;;;;;;;5026115;28;20517;-60
2023/09/13 14:40:44;;;;;;;0.50;0.30;;;;;;;;;;5025425;28;20045;-61
2023/09/13 14:43:10;;;;;;;1.02;0.70;;;;;;;;;;5022643;28;20469;-61